createdAt,value
2023-02-25T00:00:40.417Z,3.95
2023-02-25T00:01:41.724Z,3.95
2023-02-25T00:02:40.523Z,3.91
2023-02-25T00:03:40.528Z,3.80
2023-02-25T00:04:40.482Z,3.74
2023-02-25T00:05:40.504Z,3.74
2023-02-25T00:06:40.520Z,3.78
2023-02-25T00:07:40.568Z,3.83
2023-02-25T00:08:40.563Z,3.78
2023-02-25T00:09:40.581Z,3.68
2023-02-25T00:10:40.599Z,3.70
2023-02-25T00:11:40.638Z,3.68
2023-02-25T00:12:40.668Z,3.73
2023-02-25T00:13:40.706Z,3.74
2023-02-25T00:14:40.687Z,3.74
2023-02-25T00:15:40.728Z,3.74
2023-02-25T00:16:40.776Z,3.70
2023-02-25T00:17:40.775Z,3.70
2023-02-25T00:18:40.767Z,3.73
2023-02-25T00:19:40.782Z,3.74
2023-02-25T00:20:40.800Z,3.68
2023-02-25T00:21:40.810Z,3.60
2023-02-25T00:22:40.855Z,3.59
2023-02-25T00:23:40.834Z,3.63
2023-02-25T00:24:40.855Z,3.62
2023-02-25T00:25:40.881Z,3.63
2023-02-25T00:26:40.891Z,3.59
2023-02-25T00:27:40.997Z,3.59
2023-02-25T00:28:40.926Z,3.58
2023-02-25T00:29:40.942Z,3.55
2023-02-25T00:30:41.118Z,3.58
2023-02-25T00:31:41.283Z,3.62
2023-02-25T00:32:41.145Z,3.65
2023-02-25T00:33:41.007Z,3.66
2023-02-25T00:34:41.026Z,3.65
2023-02-25T00:35:41.060Z,3.68
2023-02-25T00:36:41.147Z,3.66
2023-02-25T00:37:41.117Z,3.69
2023-02-25T00:38:41.095Z,3.70
2023-02-25T00:39:41.161Z,3.73
2023-02-25T00:40:41.134Z,3.76
2023-02-25T00:41:41.152Z,3.76
2023-02-25T00:42:41.204Z,3.73
2023-02-25T00:43:41.234Z,3.70
2023-02-25T00:44:41.227Z,3.73
2023-02-25T00:45:41.252Z,3.73
2023-02-25T00:46:41.343Z,3.74
2023-02-25T00:47:41.303Z,3.73
2023-02-25T00:48:41.275Z,3.70
2023-02-25T00:49:41.304Z,3.69
2023-02-25T00:50:41.321Z,3.65
2023-02-25T00:51:41.334Z,3.62
2023-02-25T00:52:41.363Z,3.62
2023-02-25T00:53:41.367Z,3.60
2023-02-25T00:54:41.369Z,3.60
2023-02-25T00:55:41.393Z,3.58
2023-02-25T00:56:41.404Z,3.62
2023-02-25T00:57:41.442Z,3.62
2023-02-25T00:58:41.448Z,3.60
2023-02-25T00:59:41.460Z,3.60
2023-02-25T01:00:51.307Z,3.63
2023-02-25T01:01:41.541Z,3.62
2023-02-25T01:02:41.597Z,3.62
2023-02-25T01:03:41.515Z,3.60
2023-02-25T01:04:41.538Z,3.58
2023-02-25T01:05:41.551Z,3.58
2023-02-25T01:06:41.577Z,3.59
2023-02-25T01:07:41.612Z,3.53
2023-02-25T01:08:41.607Z,3.47
2023-02-25T01:09:41.631Z,3.42
2023-02-25T01:10:41.647Z,3.44
2023-02-25T01:11:41.658Z,3.45
2023-02-25T01:12:41.708Z,3.45
2023-02-25T01:13:41.765Z,3.45
2023-02-25T01:14:41.720Z,3.47
2023-02-25T01:15:41.739Z,3.48
2023-02-25T01:16:41.746Z,3.51
2023-02-25T01:17:41.812Z,3.51
2023-02-25T01:18:41.783Z,3.47
2023-02-25T01:19:41.804Z,3.45
2023-02-25T01:20:41.814Z,3.42
2023-02-25T01:21:41.844Z,3.40
2023-02-25T01:22:42.055Z,3.41
2023-02-25T01:23:41.874Z,3.41
2023-02-25T01:24:41.881Z,3.40
2023-02-25T01:25:41.912Z,3.44
2023-02-25T01:26:41.920Z,3.44
2023-02-25T01:27:41.970Z,3.45
2023-02-25T01:28:41.960Z,3.47
2023-02-25T01:29:41.980Z,3.45
2023-02-25T01:30:42.022Z,3.45
2023-02-25T01:31:42.239Z,3.44
2023-02-25T01:32:42.271Z,3.42
2023-02-25T01:33:42.043Z,3.45
2023-02-25T01:34:42.056Z,3.44
2023-02-25T01:35:42.073Z,3.47
2023-02-25T01:36:42.095Z,3.41
2023-02-25T01:37:42.145Z,3.37
2023-02-25T01:38:42.120Z,3.40
2023-02-25T01:39:42.145Z,3.37
2023-02-25T01:40:42.163Z,3.32
2023-02-25T01:41:42.185Z,3.34
2023-02-25T01:42:42.230Z,3.34
2023-02-25T01:43:42.218Z,3.36
2023-02-25T01:44:42.239Z,3.36
2023-02-25T01:45:42.260Z,3.36
2023-02-25T01:46:42.401Z,3.36
2023-02-25T01:47:42.332Z,3.31
2023-02-25T01:48:42.314Z,3.31
2023-02-25T01:49:42.316Z,3.34
2023-02-25T01:50:42.342Z,3.32
2023-02-25T01:51:42.344Z,3.34
2023-02-25T01:52:42.385Z,3.32
2023-02-25T01:53:42.380Z,3.36
2023-02-25T01:54:42.416Z,3.37
2023-02-25T01:55:42.422Z,3.36
2023-02-25T01:56:42.438Z,3.40
2023-02-25T01:57:42.468Z,3.37
2023-02-25T01:58:42.481Z,3.37
2023-02-25T01:59:42.472Z,3.36
2023-02-25T02:00:42.548Z,3.40
2023-02-25T02:01:42.505Z,3.37
2023-02-25T02:02:42.643Z,3.37
2023-02-25T02:03:42.543Z,3.36
2023-02-25T02:04:42.578Z,3.36
2023-02-25T02:05:42.577Z,3.32
2023-02-25T02:06:42.625Z,3.32
2023-02-25T02:07:42.645Z,3.31
2023-02-25T02:08:42.645Z,3.36
2023-02-25T02:09:42.657Z,3.37
2023-02-25T02:10:42.694Z,3.34
2023-02-25T02:11:42.699Z,3.32
2023-02-25T02:12:42.738Z,3.29
2023-02-25T02:13:42.725Z,3.28
2023-02-25T02:14:42.751Z,3.31
2023-02-25T02:15:42.765Z,3.32
2023-02-25T02:16:42.873Z,3.32
2023-02-25T02:17:42.832Z,3.32
2023-02-25T02:18:42.828Z,3.34
2023-02-25T02:19:42.843Z,3.36
2023-02-25T02:20:42.845Z,3.31
2023-02-25T02:21:42.864Z,3.28
2023-02-25T02:22:42.922Z,3.29
2023-02-25T02:23:42.900Z,3.29
2023-02-25T02:24:42.920Z,3.31
2023-02-25T02:25:42.936Z,3.28
2023-02-25T02:26:42.963Z,3.31
2023-02-25T02:27:43.008Z,3.32
2023-02-25T02:28:43.007Z,3.31
2023-02-25T02:29:43.013Z,3.28
2023-02-25T02:30:43.057Z,3.25
2023-02-25T02:31:43.251Z,3.21
2023-02-25T02:32:43.245Z,3.19
2023-02-25T02:33:43.093Z,3.21
2023-02-25T02:34:43.120Z,3.22
2023-02-25T02:35:43.127Z,3.25
2023-02-25T02:36:43.154Z,3.26
2023-02-25T02:37:43.187Z,3.26
2023-02-25T02:38:43.186Z,3.29
2023-02-25T02:39:43.198Z,3.31
2023-02-25T02:40:43.220Z,3.32
2023-02-25T02:41:43.232Z,3.28
2023-02-25T02:42:43.296Z,3.23
2023-02-25T02:43:43.269Z,3.26
2023-02-25T02:44:43.328Z,3.29
2023-02-25T02:45:43.334Z,3.28
2023-02-25T02:46:43.335Z,3.28
2023-02-25T02:47:43.383Z,3.28
2023-02-25T02:48:43.369Z,3.23
2023-02-25T02:49:43.379Z,3.21
2023-02-25T02:50:43.406Z,3.23
2023-02-25T02:51:43.417Z,3.26
2023-02-25T02:52:43.488Z,3.21
2023-02-25T02:53:43.453Z,3.19
2023-02-25T02:54:43.478Z,3.19
2023-02-25T02:55:43.491Z,3.23
2023-02-25T02:56:43.528Z,3.25
2023-02-25T02:57:43.563Z,3.26
2023-02-25T02:58:43.562Z,3.23
2023-02-25T02:59:43.565Z,3.26
2023-02-25T03:00:43.686Z,3.26
2023-02-25T03:01:43.610Z,3.19
2023-02-25T03:02:43.650Z,3.23
2023-02-25T03:03:43.737Z,3.25
2023-02-25T03:04:43.680Z,3.25
2023-02-25T03:05:43.676Z,3.25
2023-02-25T03:06:43.697Z,3.23
2023-02-25T03:07:43.742Z,3.23
2023-02-25T03:08:43.730Z,3.25
2023-02-25T03:09:43.743Z,3.26
2023-02-25T03:10:43.767Z,3.22
2023-02-25T03:11:43.785Z,3.26
2023-02-25T03:12:43.833Z,3.23
2023-02-25T03:13:43.814Z,3.22
2023-02-25T03:14:43.848Z,3.22
2023-02-25T03:15:43.856Z,3.22
2023-02-25T03:16:43.957Z,3.21
2023-02-25T03:17:43.914Z,3.21
2023-02-25T03:18:43.917Z,3.23
2023-02-25T03:19:43.936Z,3.23
2023-02-25T03:20:43.949Z,3.19
2023-02-25T03:21:43.974Z,3.14
2023-02-25T03:22:44.000Z,3.14
2023-02-25T03:23:43.989Z,3.16
2023-02-25T03:24:44.019Z,3.16
2023-02-25T03:25:44.032Z,3.13
2023-02-25T03:26:44.054Z,3.14
2023-02-25T03:27:44.115Z,3.14
2023-02-25T03:28:44.092Z,3.16
2023-02-25T03:29:44.101Z,3.13
2023-02-25T03:30:44.157Z,3.10
2023-02-25T03:31:44.350Z,3.08
2023-02-25T03:32:44.254Z,3.07
2023-02-25T03:33:44.169Z,3.08
2023-02-25T03:34:44.197Z,3.11
2023-02-25T03:35:44.207Z,3.11
2023-02-25T03:36:44.236Z,3.13
2023-02-25T03:37:44.271Z,3.13
2023-02-25T03:38:44.279Z,3.13
2023-02-25T03:39:44.283Z,3.13
2023-02-25T03:40:44.316Z,3.13
2023-02-25T03:41:44.333Z,3.11
2023-02-25T03:42:44.378Z,3.08
2023-02-25T03:43:44.356Z,3.10
2023-02-25T03:44:44.381Z,3.11
2023-02-25T03:45:44.459Z,3.13
2023-02-25T03:46:44.418Z,3.14
2023-02-25T03:47:44.451Z,3.16
2023-02-25T03:48:44.454Z,3.10
2023-02-25T03:49:44.462Z,3.07
2023-02-25T03:50:44.487Z,3.05
2023-02-25T03:51:44.500Z,3.07
2023-02-25T03:52:44.549Z,3.08
2023-02-25T03:53:44.535Z,3.07
2023-02-25T03:54:44.565Z,3.05
2023-02-25T03:55:44.577Z,3.04
2023-02-25T03:56:44.601Z,3.03
2023-02-25T03:57:44.626Z,3.01
2023-02-25T03:58:44.626Z,3.04
2023-02-25T03:59:44.661Z,3.05
2023-02-25T04:00:44.660Z,3.04
2023-02-25T04:01:44.803Z,3.01
2023-02-25T04:02:44.747Z,2.98
2023-02-25T04:03:44.714Z,2.97
2023-02-25T04:04:44.856Z,2.95
2023-02-25T04:05:44.740Z,2.98
2023-02-25T04:06:44.769Z,3.01
2023-02-25T04:07:44.793Z,3.03
2023-02-25T04:08:44.789Z,3.04
2023-02-25T04:09:44.800Z,3.04
2023-02-25T04:10:44.823Z,3.00
2023-02-25T04:11:44.835Z,2.92
2023-02-25T04:12:44.880Z,2.93
2023-02-25T04:13:44.870Z,2.97
2023-02-25T04:14:44.882Z,2.95
2023-02-25T04:15:44.965Z,2.98
2023-02-25T04:16:44.922Z,3.01
2023-02-25T04:17:44.948Z,3.01
2023-02-25T04:18:44.962Z,3.03
2023-02-25T04:19:44.972Z,3.01
2023-02-25T04:20:45.006Z,3.03
2023-02-25T04:21:45.009Z,2.98
2023-02-25T04:22:45.041Z,2.97
2023-02-25T04:23:45.038Z,2.98
2023-02-25T04:24:45.064Z,2.98
2023-02-25T04:25:45.080Z,2.95
2023-02-25T04:26:45.093Z,2.97
2023-02-25T04:27:45.125Z,2.93
2023-02-25T04:28:45.129Z,2.93
2023-02-25T04:29:45.142Z,2.97
2023-02-25T04:30:45.288Z,2.95
2023-02-25T04:31:45.494Z,2.93
2023-02-25T04:32:45.372Z,2.86
2023-02-25T04:33:45.203Z,2.85
2023-02-25T04:34:45.228Z,2.86
2023-02-25T04:35:45.258Z,2.86
2023-02-25T04:36:45.268Z,2.86
2023-02-25T04:37:45.295Z,2.83
2023-02-25T04:38:45.296Z,2.82
2023-02-25T04:39:45.307Z,2.85
2023-02-25T04:40:45.337Z,2.85
2023-02-25T04:41:45.351Z,2.80
2023-02-25T04:42:45.393Z,2.82
2023-02-25T04:43:45.436Z,2.83
2023-02-25T04:44:45.412Z,2.82
2023-02-25T04:45:45.423Z,2.85
2023-02-25T04:46:45.511Z,2.83
2023-02-25T04:47:45.484Z,2.80
2023-02-25T04:48:45.491Z,2.85
2023-02-25T04:49:45.493Z,2.83
2023-02-25T04:50:45.516Z,2.83
2023-02-25T04:51:45.531Z,2.82
2023-02-25T04:52:45.566Z,2.82
2023-02-25T04:53:45.560Z,2.79
2023-02-25T04:54:45.579Z,2.75
2023-02-25T04:55:45.584Z,2.79
2023-02-25T04:56:45.610Z,2.77
2023-02-25T04:57:45.640Z,2.74
2023-02-25T04:58:45.639Z,2.75
2023-02-25T04:59:45.648Z,2.75
2023-02-25T05:00:45.739Z,2.75
2023-02-25T05:01:45.719Z,2.75
2023-02-25T05:02:45.725Z,2.74
2023-02-25T05:03:45.722Z,2.75
2023-02-25T05:04:45.804Z,2.77
2023-02-25T05:05:45.745Z,2.75
2023-02-25T05:06:45.764Z,2.72
2023-02-25T05:07:45.792Z,2.74
2023-02-25T05:08:45.806Z,2.77
2023-02-25T05:09:45.813Z,2.79
2023-02-25T05:10:45.842Z,2.80
2023-02-25T05:11:45.852Z,2.80
2023-02-25T05:12:45.900Z,2.80
2023-02-25T05:13:45.894Z,2.79
2023-02-25T05:14:45.915Z,2.77
2023-02-25T05:15:45.998Z,2.75
2023-02-25T05:16:45.951Z,2.75
2023-02-25T05:17:45.981Z,2.72
2023-02-25T05:18:45.978Z,2.67
2023-02-25T05:19:45.997Z,2.69
2023-02-25T05:20:46.025Z,2.68
2023-02-25T05:21:46.037Z,2.68
2023-02-25T05:22:46.069Z,2.68
2023-02-25T05:23:46.059Z,2.67
2023-02-25T05:24:46.070Z,2.65
2023-02-25T05:25:46.084Z,2.61
2023-02-25T05:26:46.108Z,2.64
2023-02-25T05:27:46.132Z,2.64
2023-02-25T05:28:46.131Z,2.60
2023-02-25T05:29:46.173Z,2.56
2023-02-25T05:30:46.180Z,2.53
2023-02-25T05:31:46.361Z,2.53
2023-02-25T05:32:46.442Z,2.57
2023-02-25T05:33:46.208Z,2.57
2023-02-25T05:34:46.238Z,2.60
2023-02-25T05:35:46.248Z,2.60
2023-02-25T05:36:46.264Z,2.57
2023-02-25T05:37:46.307Z,2.53
2023-02-25T05:38:46.307Z,2.53
2023-02-25T05:39:46.320Z,2.56
2023-02-25T05:40:46.345Z,2.51
2023-02-25T05:41:46.354Z,2.47
2023-02-25T05:42:46.399Z,2.50
2023-02-25T05:43:46.389Z,2.51
2023-02-25T05:44:46.415Z,2.51
2023-02-25T05:45:46.427Z,2.51
2023-02-25T05:46:46.532Z,2.49
2023-02-25T05:47:46.480Z,2.46
2023-02-25T05:48:46.474Z,2.39
2023-02-25T05:49:46.489Z,2.36
2023-02-25T05:50:46.516Z,2.35
2023-02-25T05:51:46.526Z,2.31
2023-02-25T05:52:46.568Z,2.29
2023-02-25T05:53:46.558Z,2.31
2023-02-25T05:54:46.581Z,2.28
2023-02-25T05:55:46.606Z,2.28
2023-02-25T05:56:46.628Z,2.22
2023-02-25T05:57:46.671Z,2.20
2023-02-25T05:58:46.655Z,2.14
2023-02-25T05:59:46.679Z,2.14
2023-02-25T06:00:46.704Z,2.13
2023-02-25T06:01:46.781Z,2.13
2023-02-25T06:02:46.775Z,2.11
2023-02-25T06:03:46.756Z,2.15
2023-02-25T06:04:46.765Z,2.18
2023-02-25T06:05:48.003Z,2.17
2023-02-25T06:06:46.796Z,2.14
2023-02-25T06:07:46.840Z,2.14
2023-02-25T06:08:46.833Z,2.14
2023-02-25T06:09:46.847Z,2.11
2023-02-25T06:10:46.864Z,2.11
2023-02-25T06:11:46.879Z,2.15
2023-02-25T06:12:46.909Z,2.17
2023-02-25T06:13:46.910Z,2.18
2023-02-25T06:14:46.933Z,2.25
2023-02-25T06:15:46.956Z,2.28
2023-02-25T06:16:46.981Z,2.31
2023-02-25T06:17:46.995Z,2.29
2023-02-25T06:18:46.987Z,2.26
2023-02-25T06:19:47.010Z,2.25
2023-02-25T06:20:47.030Z,2.29
2023-02-25T06:21:47.055Z,2.33
2023-02-25T06:22:47.088Z,2.35
2023-02-25T06:23:47.088Z,2.32
2023-02-25T06:24:47.103Z,2.31
2023-02-25T06:25:47.127Z,2.35
2023-02-25T06:26:47.137Z,2.39
2023-02-25T06:27:47.191Z,2.39
2023-02-25T06:28:47.175Z,2.38
2023-02-25T06:29:47.200Z,2.39
2023-02-25T06:30:47.257Z,2.39
2023-02-25T06:31:47.399Z,2.43
2023-02-25T06:32:47.410Z,2.44
2023-02-25T06:33:47.288Z,2.43
2023-02-25T06:34:47.293Z,2.43
2023-02-25T06:35:47.318Z,2.44
2023-02-25T06:36:47.333Z,2.44
2023-02-25T06:37:47.367Z,2.46
2023-02-25T06:38:47.358Z,2.46
2023-02-25T06:39:47.390Z,2.51
2023-02-25T06:40:47.394Z,2.50
2023-02-25T06:41:47.419Z,2.53
2023-02-25T06:42:47.456Z,2.54
2023-02-25T06:43:47.452Z,2.57
2023-02-25T06:44:47.470Z,2.53
2023-02-25T06:45:47.540Z,2.50
2023-02-25T06:46:47.518Z,2.51
2023-02-25T06:47:47.555Z,2.57
2023-02-25T06:48:47.542Z,2.62
2023-02-25T06:49:47.560Z,2.62
2023-02-25T06:50:47.584Z,2.64
2023-02-25T06:51:47.597Z,2.61
2023-02-25T06:52:47.628Z,2.64
2023-02-25T06:53:47.791Z,2.64
2023-02-25T06:54:47.648Z,2.65
2023-02-25T06:55:47.665Z,2.69
2023-02-25T06:56:47.682Z,2.72
2023-02-25T06:57:47.710Z,2.77
2023-02-25T06:58:47.703Z,2.79
2023-02-25T06:59:47.728Z,2.80
2023-02-25T07:00:47.737Z,2.83
2023-02-25T07:01:47.769Z,2.86
2023-02-25T07:02:47.783Z,2.85
2023-02-25T07:03:47.810Z,2.89
2023-02-25T07:04:47.915Z,2.92
2023-02-25T07:05:47.840Z,2.86
2023-02-25T07:06:47.850Z,2.87
2023-02-25T07:07:47.898Z,2.92
2023-02-25T07:08:47.887Z,2.87
2023-02-25T07:09:47.912Z,2.90
2023-02-25T07:10:47.929Z,2.89
2023-02-25T07:11:47.950Z,2.93
2023-02-25T07:12:47.979Z,2.89
2023-02-25T07:13:47.977Z,2.87
2023-02-25T07:14:47.988Z,2.87
2023-02-25T07:15:48.063Z,2.82
2023-02-25T07:16:48.029Z,2.74
2023-02-25T07:17:48.072Z,2.80
2023-02-25T07:18:48.075Z,2.80
2023-02-25T07:19:48.073Z,2.83
2023-02-25T07:20:48.089Z,2.85
2023-02-25T07:21:48.101Z,2.82
2023-02-25T07:22:48.137Z,2.86
2023-02-25T07:23:48.145Z,2.86
2023-02-25T07:24:48.158Z,2.85
2023-02-25T07:25:48.165Z,2.85
2023-02-25T07:26:48.179Z,2.86
2023-02-25T07:27:48.229Z,2.83
2023-02-25T07:28:48.259Z,2.87
2023-02-25T07:29:48.237Z,2.95
2023-02-25T07:30:48.364Z,3.00
2023-02-25T07:31:48.513Z,3.03
2023-02-25T07:32:48.494Z,3.10
2023-02-25T07:33:48.302Z,3.10
2023-02-25T07:34:48.312Z,3.14
2023-02-25T07:35:48.342Z,3.22
2023-02-25T07:36:48.348Z,3.28
2023-02-25T07:37:48.391Z,3.34
2023-02-25T07:38:48.382Z,3.40
2023-02-25T07:39:48.406Z,3.36
2023-02-25T07:40:48.413Z,3.34
2023-02-25T07:41:48.462Z,3.41
2023-02-25T07:42:48.478Z,3.40
2023-02-25T07:43:48.479Z,3.44
2023-02-25T07:44:48.491Z,3.50
2023-02-25T07:45:48.542Z,3.55
2023-02-25T07:46:48.525Z,3.60
2023-02-25T07:47:48.566Z,3.65
2023-02-25T07:48:48.554Z,3.63
2023-02-25T07:49:48.582Z,3.63
2023-02-25T07:50:48.602Z,3.68
2023-02-25T07:51:48.626Z,3.69
2023-02-25T07:52:48.656Z,3.68
2023-02-25T07:53:48.661Z,3.68
2023-02-25T07:54:48.670Z,3.73
2023-02-25T07:55:48.694Z,3.77
2023-02-25T07:56:48.701Z,3.74
2023-02-25T07:57:48.762Z,3.74
2023-02-25T07:58:48.737Z,3.70
2023-02-25T07:59:48.756Z,3.68
2023-02-25T08:00:48.763Z,3.63
2023-02-25T08:01:48.802Z,3.63
2023-02-25T08:02:48.912Z,3.58
2023-02-25T08:03:48.819Z,3.58
2023-02-25T08:04:48.961Z,3.51
2023-02-25T08:05:48.861Z,3.47
2023-02-25T08:06:48.871Z,3.44
2023-02-25T08:07:48.916Z,3.44
2023-02-25T08:08:48.981Z,3.41
2023-02-25T08:09:48.945Z,3.40
2023-02-25T08:10:48.942Z,3.34
2023-02-25T08:11:48.965Z,3.34
2023-02-25T08:12:49.007Z,3.36
2023-02-25T08:13:49.005Z,3.29
2023-02-25T08:14:49.009Z,3.22
2023-02-25T08:15:49.130Z,3.23
2023-02-25T08:16:49.048Z,3.18
2023-02-25T08:17:49.092Z,3.14
2023-02-25T08:18:49.087Z,3.18
2023-02-25T08:19:49.099Z,3.21
2023-02-25T08:20:49.104Z,3.23
2023-02-25T08:21:49.133Z,3.22
2023-02-25T08:22:49.167Z,3.23
2023-02-25T08:23:49.159Z,3.25
2023-02-25T08:24:49.184Z,3.29
2023-02-25T08:25:49.197Z,3.36
2023-02-25T08:26:49.219Z,3.36
2023-02-25T08:27:49.272Z,3.36
2023-02-25T08:28:49.256Z,3.36
2023-02-25T08:29:49.267Z,3.32
2023-02-25T08:30:49.314Z,3.31
2023-02-25T08:31:49.519Z,3.31
2023-02-25T08:32:49.496Z,3.32
2023-02-25T08:33:49.397Z,3.29
2023-02-25T08:34:49.354Z,3.32
2023-02-25T08:35:49.379Z,3.32
2023-02-25T08:36:49.390Z,3.32
2023-02-25T08:37:49.437Z,3.37
2023-02-25T08:38:49.422Z,3.36
2023-02-25T08:39:49.447Z,3.31
2023-02-25T08:40:49.463Z,3.36
2023-02-25T08:41:49.488Z,3.37
2023-02-25T08:42:49.522Z,3.48
2023-02-25T08:43:49.529Z,3.58
2023-02-25T08:44:49.547Z,3.69
2023-02-25T08:45:49.574Z,3.78
2023-02-25T08:46:49.671Z,3.84
2023-02-25T08:47:49.627Z,3.86
2023-02-25T08:48:49.609Z,3.94
2023-02-25T08:49:49.637Z,3.98
2023-02-25T08:50:49.650Z,3.99
2023-02-25T08:51:49.673Z,3.94
2023-02-25T08:52:49.788Z,3.92
2023-02-25T08:53:49.734Z,3.99
2023-02-25T08:54:49.721Z,4.01
2023-02-25T08:55:49.747Z,4.01
2023-02-25T08:56:49.761Z,3.99
2023-02-25T08:57:49.805Z,3.98
2023-02-25T08:58:49.795Z,3.99
2023-02-25T08:59:49.819Z,3.99
2023-02-25T09:00:49.893Z,3.96
2023-02-25T09:01:49.854Z,3.96
2023-02-25T09:02:49.894Z,3.94
2023-02-25T09:03:49.889Z,3.92
2023-02-25T09:04:49.996Z,3.88
2023-02-25T09:05:49.929Z,3.88
2023-02-25T09:06:49.935Z,3.87
2023-02-25T09:07:49.982Z,3.88
2023-02-25T09:08:49.980Z,3.96
2023-02-25T09:09:50.000Z,3.96
2023-02-25T09:10:51.116Z,3.99
2023-02-25T09:11:50.032Z,4.04
2023-02-25T09:12:50.076Z,4.06
2023-02-25T09:13:50.061Z,4.14
2023-02-25T09:14:50.072Z,4.17
2023-02-25T09:15:50.099Z,4.16
2023-02-25T09:16:50.208Z,4.20
2023-02-25T09:17:50.162Z,4.30
2023-02-25T09:18:50.258Z,4.35
2023-02-25T09:19:50.164Z,4.49
2023-02-25T09:20:50.180Z,4.59
2023-02-25T09:21:50.198Z,4.58
2023-02-25T09:22:50.228Z,4.62
2023-02-25T09:23:50.224Z,4.78
2023-02-25T09:24:50.240Z,4.92
2023-02-25T09:25:50.265Z,5.00
2023-02-25T09:26:50.270Z,5.07
2023-02-25T09:27:50.320Z,5.11
2023-02-25T09:28:50.324Z,4.96
2023-02-25T09:29:50.342Z,4.89
2023-02-25T09:30:50.391Z,4.86
2023-02-25T09:31:50.808Z,4.92
2023-02-25T09:32:50.614Z,4.94
2023-02-25T09:33:50.409Z,4.93
2023-02-25T09:34:50.426Z,4.97
2023-02-25T09:35:50.447Z,4.93
2023-02-25T09:36:50.455Z,4.93
2023-02-25T09:37:50.500Z,4.86
2023-02-25T09:38:50.499Z,4.84
2023-02-25T09:39:50.512Z,4.84
2023-02-25T09:40:50.524Z,4.84
2023-02-25T09:41:50.549Z,4.75
2023-02-25T09:42:50.585Z,4.70
2023-02-25T09:43:50.584Z,4.62
2023-02-25T09:44:50.607Z,4.58
2023-02-25T09:45:50.684Z,4.45
2023-02-25T09:46:50.659Z,4.45
2023-02-25T09:47:50.800Z,4.41
2023-02-25T09:48:50.674Z,4.45
2023-02-25T09:49:50.702Z,4.53
2023-02-25T09:50:50.716Z,4.52
2023-02-25T09:51:50.739Z,4.55
2023-02-25T09:52:50.776Z,4.53
2023-02-25T09:53:50.768Z,4.44
2023-02-25T09:54:50.787Z,4.45
2023-02-25T09:55:50.800Z,4.49
2023-02-25T09:56:50.815Z,4.50
2023-02-25T09:57:50.868Z,4.59
2023-02-25T09:58:50.857Z,4.62
2023-02-25T09:59:50.869Z,4.66
2023-02-25T10:00:50.882Z,4.63
2023-02-25T10:01:50.902Z,4.70
2023-02-25T10:02:51.135Z,4.77
2023-02-25T10:03:50.938Z,4.87
2023-02-25T10:04:50.956Z,4.77
2023-02-25T10:05:50.976Z,4.71
2023-02-25T10:06:50.983Z,4.77
2023-02-25T10:07:51.037Z,4.84
2023-02-25T10:08:51.026Z,4.89
2023-02-25T10:09:51.137Z,4.93
2023-02-25T10:10:51.064Z,4.97
2023-02-25T10:11:51.088Z,5.04
2023-02-25T10:12:51.118Z,5.08
2023-02-25T10:13:51.111Z,5.08
2023-02-25T10:14:51.127Z,5.02
2023-02-25T10:15:53.030Z,4.99
2023-02-25T10:16:51.210Z,4.96
2023-02-25T10:17:51.221Z,4.93
2023-02-25T10:18:51.209Z,4.97
2023-02-25T10:19:51.216Z,5.00
2023-02-25T10:20:51.238Z,4.99
2023-02-25T10:21:51.245Z,4.96
2023-02-25T10:22:51.297Z,4.97
2023-02-25T10:23:51.281Z,4.89
2023-02-25T10:24:51.305Z,4.92
2023-02-25T10:25:51.314Z,4.97
2023-02-25T10:26:51.333Z,5.02
2023-02-25T10:27:51.388Z,5.11
2023-02-25T10:28:51.373Z,5.18
2023-02-25T10:29:51.388Z,5.26
2023-02-25T10:30:51.534Z,5.28
2023-02-25T10:31:51.591Z,5.25
2023-02-25T10:32:51.493Z,5.15
2023-02-25T10:33:51.454Z,5.14
2023-02-25T10:34:51.474Z,5.20
2023-02-25T10:35:51.490Z,5.26
2023-02-25T10:36:51.522Z,5.35
2023-02-25T10:37:51.555Z,5.35
2023-02-25T10:38:51.552Z,5.32
2023-02-25T10:39:51.560Z,5.32
2023-02-25T10:40:51.587Z,5.35
2023-02-25T10:41:51.602Z,5.32
2023-02-25T10:42:51.646Z,5.29
2023-02-25T10:43:51.644Z,5.12
2023-02-25T10:44:51.665Z,5.02
2023-02-25T10:45:51.793Z,4.87
2023-02-25T10:46:51.702Z,4.80
2023-02-25T10:47:51.736Z,4.77
2023-02-25T10:48:51.736Z,4.74
2023-02-25T10:49:51.750Z,4.75
2023-02-25T10:50:51.875Z,4.73
2023-02-25T10:51:51.792Z,4.68
2023-02-25T10:52:51.841Z,4.55
2023-02-25T10:53:51.829Z,4.49
2023-02-25T10:54:51.864Z,4.42
2023-02-25T10:55:52.047Z,4.37
2023-02-25T10:56:51.894Z,4.37
2023-02-25T10:57:51.998Z,4.35
2023-02-25T10:58:51.929Z,4.37
2023-02-25T10:59:51.941Z,4.40
2023-02-25T11:00:51.969Z,4.38
2023-02-25T11:01:52.042Z,4.30
2023-02-25T11:02:52.074Z,4.24
2023-02-25T11:03:52.003Z,4.30
2023-02-25T11:04:52.035Z,4.31
2023-02-25T11:05:52.038Z,4.31
2023-02-25T11:06:52.049Z,4.32
2023-02-25T11:07:52.086Z,4.34
2023-02-25T11:08:52.083Z,4.38
2023-02-25T11:09:52.104Z,4.42
2023-02-25T11:10:52.120Z,4.48
2023-02-25T11:11:52.128Z,4.59
2023-02-25T11:12:52.171Z,4.70
2023-02-25T11:13:52.163Z,4.78
2023-02-25T11:14:52.190Z,4.86
2023-02-25T11:15:52.225Z,4.84
2023-02-25T11:16:52.220Z,4.86
2023-02-25T11:17:52.273Z,4.84
2023-02-25T11:18:52.253Z,4.86
2023-02-25T11:19:52.257Z,4.87
2023-02-25T11:20:52.293Z,4.78
2023-02-25T11:21:52.293Z,4.73
2023-02-25T11:22:52.364Z,4.66
2023-02-25T11:23:52.328Z,4.56
2023-02-25T11:24:52.350Z,4.55
2023-02-25T11:25:52.360Z,4.53
2023-02-25T11:26:52.392Z,4.52
2023-02-25T11:27:52.421Z,4.55
2023-02-25T11:28:52.415Z,4.53
2023-02-25T11:29:52.427Z,4.52
2023-02-25T11:30:52.640Z,4.55
2023-02-25T11:31:52.635Z,4.62
2023-02-25T11:32:52.540Z,4.74
2023-02-25T11:33:52.621Z,5.08
2023-02-25T11:34:52.530Z,5.36
2023-02-25T11:35:52.530Z,5.66
2023-02-25T11:36:52.627Z,5.80
2023-02-25T11:37:52.589Z,5.89
2023-02-25T11:38:52.586Z,5.84
2023-02-25T11:39:52.596Z,5.75
2023-02-25T11:40:52.620Z,5.71
2023-02-25T11:41:52.632Z,5.72
2023-02-25T11:42:52.696Z,5.69
2023-02-25T11:43:52.671Z,5.76
2023-02-25T11:44:52.695Z,5.71
2023-02-25T11:45:52.711Z,5.69
2023-02-25T11:46:52.884Z,5.69
2023-02-25T11:47:52.808Z,5.72
2023-02-25T11:48:52.773Z,5.79
2023-02-25T11:49:52.834Z,5.80
2023-02-25T11:50:52.801Z,5.87
2023-02-25T11:51:52.818Z,5.94
2023-02-25T11:52:52.881Z,5.99
2023-02-25T11:53:53.007Z,5.94
2023-02-25T11:54:52.878Z,5.97
2023-02-25T11:55:52.887Z,5.99
2023-02-25T11:56:52.912Z,6.02
2023-02-25T11:57:52.940Z,6.08
2023-02-25T11:58:52.936Z,6.02
2023-02-25T11:59:52.944Z,5.93
2023-02-25T12:00:52.966Z,5.98
2023-02-25T12:01:52.975Z,5.89
2023-02-25T12:02:53.072Z,5.86
2023-02-25T12:03:53.021Z,5.76
2023-02-25T12:04:53.055Z,5.75
2023-02-25T12:05:53.150Z,5.87
2023-02-25T12:06:53.065Z,5.93
2023-02-25T12:08:11.786Z,5.98
2023-02-25T12:08:53.123Z,5.91
2023-02-25T12:09:53.110Z,5.89
2023-02-25T12:10:53.128Z,5.91
2023-02-25T12:11:53.138Z,5.90
2023-02-25T12:12:53.185Z,5.91
2023-02-25T12:13:53.301Z,6.02
2023-02-25T12:14:53.203Z,6.11
2023-02-25T12:15:53.258Z,5.99
2023-02-25T12:16:53.227Z,5.93
2023-02-25T12:17:53.269Z,5.86
2023-02-25T12:18:53.265Z,5.86
2023-02-25T12:19:53.278Z,5.90
2023-02-25T12:20:53.301Z,5.86
2023-02-25T12:21:53.313Z,5.76
2023-02-25T12:22:53.446Z,5.73
2023-02-25T12:23:53.352Z,5.75
2023-02-25T12:24:53.376Z,5.76
2023-02-25T12:25:53.389Z,5.76
2023-02-25T12:26:53.412Z,5.82
2023-02-25T12:27:53.442Z,5.86
2023-02-25T12:28:53.439Z,5.83
2023-02-25T12:29:53.453Z,5.84
2023-02-25T12:30:53.575Z,5.80
2023-02-25T12:31:53.736Z,5.83
2023-02-25T12:32:53.550Z,5.84
2023-02-25T12:33:53.523Z,5.80
2023-02-25T12:34:53.548Z,5.62
2023-02-25T12:35:53.569Z,5.65
2023-02-25T12:36:53.593Z,5.66
2023-02-25T12:37:53.639Z,5.73
2023-02-25T12:38:53.622Z,5.66
2023-02-25T12:39:53.630Z,5.57
2023-02-25T12:40:53.662Z,5.59
2023-02-25T12:41:54.707Z,5.62
2023-02-25T12:42:53.719Z,5.65
2023-02-25T12:43:53.704Z,5.69
2023-02-25T12:44:53.734Z,5.75
2023-02-25T12:45:53.812Z,6.02
2023-02-25T12:46:53.756Z,6.12
2023-02-25T12:47:53.825Z,6.08
2023-02-25T12:48:53.804Z,6.16
2023-02-25T12:49:53.802Z,6.05
2023-02-25T12:50:53.829Z,5.91
2023-02-25T12:51:53.840Z,5.82
2023-02-25T12:52:53.896Z,5.82
2023-02-25T12:53:53.877Z,5.91
2023-02-25T12:54:53.904Z,5.90
2023-02-25T12:55:53.912Z,5.97
2023-02-25T12:56:53.928Z,6.01
2023-02-25T12:57:53.968Z,6.01
2023-02-25T12:58:53.961Z,6.09
2023-02-25T12:59:53.971Z,6.11
2023-02-25T13:00:54.065Z,6.16
2023-02-25T13:01:54.013Z,6.30
2023-02-25T13:02:54.061Z,6.31
2023-02-25T13:03:54.513Z,6.30
2023-02-25T13:04:54.100Z,6.19
2023-02-25T13:05:54.084Z,6.11
2023-02-25T13:06:54.111Z,6.12
2023-02-25T13:07:54.153Z,6.16
2023-02-25T13:08:54.137Z,6.19
2023-02-25T13:09:54.144Z,6.12
2023-02-25T13:10:54.182Z,6.05
2023-02-25T13:12:11.165Z,6.02
2023-02-25T13:12:54.241Z,5.99
2023-02-25T13:13:54.221Z,5.99
2023-02-25T13:14:54.236Z,5.91
2023-02-25T13:15:54.246Z,5.76
2023-02-25T13:16:54.284Z,5.82
2023-02-25T13:17:54.304Z,5.80
2023-02-25T13:18:54.305Z,5.83